Terminal Aerodrome Forecast
Issued by NWS

Home | Current Version | Previous Version | Text Only | Print | Product List | Glossary On
Versions: 1 2 3 4 5 6 7 8 9 10 11 12 13 14
206
FTUS42 KMLB 211127
TAFFPR
TAF
KFPR 211127Z 2112/2212 00000KT P6SM VCSH SCT025
     FM211500 05008KT P6SM VCSH SCT025 SCT250
     FM220000 06006KT P6SM VCSH SCT030 BKN050 BKN250=

USA.gov is the U.S. government's official web portal to all federal, state and local government web resources and services.